sensor_id;sensor_type;location;lat;lon;timestamp;temperature;humidity
46159;DHT22;74657;45.650;25.590;2024-03-06T00:01:29;3.60;99.90
46159;DHT22;74657;45.650;25.590;2024-03-06T00:03:52;3.60;99.90
46159;DHT22;74657;45.650;25.590;2024-03-06T00:06:16;3.50;99.90
46159;DHT22;74657;45.650;25.590;2024-03-06T00:08:39;3.50;99.90
46159;DHT22;74657;45.650;25.590;2024-03-06T00:11:02;3.50;99.90
46159;DHT22;74657;45.650;25.590;2024-03-06T00:13:27;3.50;99.90
46159;DHT22;74657;45.650;25.590;2024-03-06T00:15:50;3.40;99.90
46159;DHT22;74657;45.650;25.590;2024-03-06T00:18:14;3.30;99.90
46159;DHT22;74657;45.650;25.590;2024-03-06T00:20:38;3.30;99.90
46159;DHT22;74657;45.650;25.590;2024-03-06T00:23:04;3.30;99.90
46159;DHT22;74657;45.650;25.590;2024-03-06T00:25:27;3.30;99.90
46159;DHT22;74657;45.650;25.590;2024-03-06T00:27:50;3.20;99.90
46159;DHT22;74657;45.650;25.590;2024-03-06T00:30:15;3.20;99.90
46159;DHT22;74657;45.650;25.590;2024-03-06T00:32:38;3.10;99.90
46159;DHT22;74657;45.650;25.590;2024-03-06T00:35:01;3.00;99.90
46159;DHT22;74657;45.650;25.590;2024-03-06T00:37:25;3.00;99.90
46159;DHT22;74657;45.650;25.590;2024-03-06T00:39:49;3.00;99.90
46159;DHT22;74657;45.650;25.590;2024-03-06T00:42:12;2.90;99.90
46159;DHT22;74657;45.650;25.590;2024-03-06T00:44:35;2.90;99.90
46159;DHT22;74657;45.650;25.590;2024-03-06T00:47:00;2.90;99.90
46159;DHT22;74657;45.650;25.590;2024-03-06T00:49:23;2.90;99.90
46159;DHT22;74657;45.650;25.590;2024-03-06T00:51:47;2.90;99.90
46159;DHT22;74657;45.650;25.590;2024-03-06T00:54:11;2.90;99.90
46159;DHT22;74657;45.650;25.590;2024-03-06T00:56:37;2.90;99.90
46159;DHT22;74657;45.650;25.590;2024-03-06T00:59:01;2.90;99.90
46159;DHT22;74657;45.650;25.590;2024-03-06T01:01:23;2.90;99.90
46159;DHT22;74657;45.650;25.590;2024-03-06T01:03:50;2.90;99.90
46159;DHT22;74657;45.650;25.590;2024-03-06T01:06:13;2.90;99.90
46159;DHT22;74657;45.650;25.590;2024-03-06T01:08:36;2.90;99.90
46159;DHT22;74657;45.650;25.590;2024-03-06T01:10:59;2.90;99.90
46159;DHT22;74657;45.650;25.590;2024-03-06T01:13:22;2.90;99.90
46159;DHT22;74657;45.650;25.590;2024-03-06T01:15:46;2.90;99.90
46159;DHT22;74657;45.650;25.590;2024-03-06T01:18:09;2.90;99.90
46159;DHT22;74657;45.650;25.590;2024-03-06T01:20:34;2.90;99.90
46159;DHT22;74657;45.650;25.590;2024-03-06T01:22:57;2.90;99.90
46159;DHT22;74657;45.650;25.590;2024-03-06T01:25:21;2.90;99.90
46159;DHT22;74657;45.650;25.590;2024-03-06T01:27:45;3.00;99.90
46159;DHT22;74657;45.650;25.590;2024-03-06T01:30:09;3.00;99.90
46159;DHT22;74657;45.650;25.590;2024-03-06T01:32:33;3.00;99.90
46159;DHT22;74657;45.650;25.590;2024-03-06T01:34:56;3.00;99.90
46159;DHT22;74657;45.650;25.590;2024-03-06T01:37:20;3.00;99.90
46159;DHT22;74657;45.650;25.590;2024-03-06T01:39:44;3.10;99.90
46159;DHT22;74657;45.650;25.590;2024-03-06T01:42:07;3.10;99.90
46159;DHT22;74657;45.650;25.590;2024-03-06T01:44:31;3.20;99.90
46159;DHT22;74657;45.650;25.590;2024-03-06T01:46:54;3.20;99.90
46159;DHT22;74657;45.650;25.590;2024-03-06T01:49:18;3.20;99.90
46159;DHT22;74657;45.650;25.590;2024-03-06T01:51:55;3.30;99.90
46159;DHT22;74657;45.650;25.590;2024-03-06T01:54:20;3.30;99.90
46159;DHT22;74657;45.650;25.590;2024-03-06T01:56:45;3.40;99.90
46159;DHT22;74657;45.650;25.590;2024-03-06T01:59:09;3.50;99.90
46159;DHT22;74657;45.650;25.590;2024-03-06T02:01:41;3.50;99.90
46159;DHT22;74657;45.650;25.590;2024-03-06T02:04:06;3.50;99.90
46159;DHT22;74657;45.650;25.590;2024-03-06T02:06:31;3.50;99.90
46159;DHT22;74657;45.650;25.590;2024-03-06T02:08:54;3.50;99.90
46159;DHT22;74657;45.650;25.590;2024-03-06T02:11:19;3.50;99.90
46159;DHT22;74657;45.650;25.590;2024-03-06T02:13:43;3.50;99.90
46159;DHT22;74657;45.650;25.590;2024-03-06T02:16:07;3.60;99.90
46159;DHT22;74657;45.650;25.590;2024-03-06T02:18:31;3.60;99.90
46159;DHT22;74657;45.650;25.590;2024-03-06T02:20:55;3.60;99.90
46159;DHT22;74657;45.650;25.590;2024-03-06T02:23:18;3.40;99.90
46159;DHT22;74657;45.650;25.590;2024-03-06T02:25:43;3.40;99.90
46159;DHT22;74657;45.650;25.590;2024-03-06T02:28:07;3.30;99.90
46159;DHT22;74657;45.650;25.590;2024-03-06T02:30:30;3.20;99.90
46159;DHT22;74657;45.650;25.590;2024-03-06T02:32:58;3.20;99.90
46159;DHT22;74657;45.650;25.590;2024-03-06T02:35:22;3.10;99.90
46159;DHT22;74657;45.650;25.590;2024-03-06T02:37:47;3.00;99.90
46159;DHT22;74657;45.650;25.590;2024-03-06T02:40:11;3.00;99.90
46159;DHT22;74657;45.650;25.590;2024-03-06T02:42:34;3.00;99.90
46159;DHT22;74657;45.650;25.590;2024-03-06T02:44:58;3.00;99.90
46159;DHT22;74657;45.650;25.590;2024-03-06T02:47:21;3.00;99.90
46159;DHT22;74657;45.650;25.590;2024-03-06T02:49:45;2.90;99.90
46159;DHT22;74657;45.650;25.590;2024-03-06T02:52:08;2.80;99.90
46159;DHT22;74657;45.650;25.590;2024-03-06T02:54:33;2.70;99.90
46159;DHT22;74657;45.650;25.590;2024-03-06T02:56:57;2.60;99.90
46159;DHT22;74657;45.650;25.590;2024-03-06T02:59:20;2.60;99.90
46159;DHT22;74657;45.650;25.590;2024-03-06T03:01:43;2.50;99.90
46159;DHT22;74657;45.650;25.590;2024-03-06T03:04:07;2.50;99.90
46159;DHT22;74657;45.650;25.590;2024-03-06T03:06:30;2.40;99.90
46159;DHT22;74657;45.650;25.590;2024-03-06T03:08:53;2.30;99.90
46159;DHT22;74657;45.650;25.590;2024-03-06T03:11:19;2.20;99.90
46159;DHT22;74657;45.650;25.590;2024-03-06T03:13:42;2.20;99.90
46159;DHT22;74657;45.650;25.590;2024-03-06T03:16:06;2.20;99.90
46159;DHT22;74657;45.650;25.590;2024-03-06T03:18:29;2.30;99.90
46159;DHT22;74657;45.650;25.590;2024-03-06T03:20:53;2.30;99.90
46159;DHT22;74657;45.650;25.590;2024-03-06T03:23:16;2.30;99.90
46159;DHT22;74657;45.650;25.590;2024-03-06T03:25:44;2.20;99.90
46159;DHT22;74657;45.650;25.590;2024-03-06T03:28:10;2.20;99.90
46159;DHT22;74657;45.650;25.590;2024-03-06T03:30:33;2.10;99.90
46159;DHT22;74657;45.650;25.590;2024-03-06T03:32:57;2.10;99.90
46159;DHT22;74657;45.650;25.590;2024-03-06T03:35:20;2.10;99.90
46159;DHT22;74657;45.650;25.590;2024-03-06T03:37:46;2.10;99.90
46159;DHT22;74657;45.650;25.590;2024-03-06T03:40:10;2.00;99.90
46159;DHT22;74657;45.650;25.590;2024-03-06T03:42:34;2.00;99.90
46159;DHT22;74657;45.650;25.590;2024-03-06T03:44:59;2.00;99.90
46159;DHT22;74657;45.650;25.590;2024-03-06T03:47:23;1.90;99.90
46159;DHT22;74657;45.650;25.590;2024-03-06T03:49:46;1.90;99.90
46159;DHT22;74657;45.650;25.590;2024-03-06T03:52:27;1.90;99.90
46159;DHT22;74657;45.650;25.590;2024-03-06T03:54:50;1.90;99.90
46159;DHT22;74657;45.650;25.590;2024-03-06T03:57:14;1.80;99.90
46159;DHT22;74657;45.650;25.590;2024-03-06T03:59:38;1.90;99.90
46159;DHT22;74657;45.650;25.590;2024-03-06T04:02:04;1.90;99.90
46159;DHT22;74657;45.650;25.590;2024-03-06T04:04:27;1.90;99.90
46159;DHT22;74657;45.650;25.590;2024-03-06T04:06:51;1.80;99.90
46159;DHT22;74657;45.650;25.590;2024-03-06T04:09:14;1.80;99.90
46159;DHT22;74657;45.650;25.590;2024-03-06T04:11:37;1.80;99.90
46159;DHT22;74657;45.650;25.590;2024-03-06T04:14:01;1.80;99.90
46159;DHT22;74657;45.650;25.590;2024-03-06T04:16:24;1.80;99.90
46159;DHT22;74657;45.650;25.590;2024-03-06T04:18:52;1.80;99.90
46159;DHT22;74657;45.650;25.590;2024-03-06T04:21:15;1.80;99.90
46159;DHT22;74657;45.650;25.590;2024-03-06T04:23:38;1.70;99.90
46159;DHT22;74657;45.650;25.590;2024-03-06T04:26:02;1.70;99.90
46159;DHT22;74657;45.650;25.590;2024-03-06T04:28:27;1.70;99.90
46159;DHT22;74657;45.650;25.590;2024-03-06T04:30:51;1.80;99.90
46159;DHT22;74657;45.650;25.590;2024-03-06T04:33:14;1.80;99.90
46159;DHT22;74657;45.650;25.590;2024-03-06T04:35:39;1.80;99.90
46159;DHT22;74657;45.650;25.590;2024-03-06T04:38:02;1.80;99.90
46159;DHT22;74657;45.650;25.590;2024-03-06T04:40:25;1.80;99.90
46159;DHT22;74657;45.650;25.590;2024-03-06T04:42:50;1.80;99.90
46159;DHT22;74657;45.650;25.590;2024-03-06T04:45:15;1.70;99.90
46159;DHT22;74657;45.650;25.590;2024-03-06T04:47:39;1.70;99.90
46159;DHT22;74657;45.650;25.590;2024-03-06T04:50:02;1.70;99.90
46159;DHT22;74657;45.650;25.590;2024-03-06T04:52:27;1.70;99.90
46159;DHT22;74657;45.650;25.590;2024-03-06T04:54:50;1.80;99.90
46159;DHT22;74657;45.650;25.590;2024-03-06T04:57:14;1.80;99.90
46159;DHT22;74657;45.650;25.590;2024-03-06T04:59:37;1.80;99.90
46159;DHT22;74657;45.650;25.590;2024-03-06T05:02:00;1.80;99.90
46159;DHT22;74657;45.650;25.590;2024-03-06T05:04:24;1.80;99.90
46159;DHT22;74657;45.650;25.590;2024-03-06T05:07:05;1.80;99.90
46159;DHT22;74657;45.650;25.590;2024-03-06T05:09:47;1.80;99.90
46159;DHT22;74657;45.650;25.590;2024-03-06T05:12:28;1.80;99.90
46159;DHT22;74657;45.650;25.590;2024-03-06T05:15:11;1.90;99.90
46159;DHT22;74657;45.650;25.590;2024-03-06T05:17:52;2.10;99.90
46159;DHT22;74657;45.650;25.590;2024-03-06T05:20:34;2.20;99.90
46159;DHT22;74657;45.650;25.590;2024-03-06T05:23:15;2.40;99.90
46159;DHT22;74657;45.650;25.590;2024-03-06T05:25:57;2.70;99.90
46159;DHT22;74657;45.650;25.590;2024-03-06T05:28:38;2.90;99.90
46159;DHT22;74657;45.650;25.590;2024-03-06T05:31:20;3.00;99.90
46159;DHT22;74657;45.650;25.590;2024-03-06T05:34:02;3.20;99.90
46159;DHT22;74657;45.650;25.590;2024-03-06T05:36:44;3.40;99.90
46159;DHT22;74657;45.650;25.590;2024-03-06T05:39:24;3.50;99.90
46159;DHT22;74657;45.650;25.590;2024-03-06T05:42:07;3.70;99.90
46159;DHT22;74657;45.650;25.590;2024-03-06T05:44:47;3.90;99.90
46159;DHT22;74657;45.650;25.590;2024-03-06T05:47:29;4.00;99.90
46159;DHT22;74657;45.650;25.590;2024-03-06T05:50:10;4.20;99.90
46159;DHT22;74657;45.650;25.590;2024-03-06T05:52:51;4.30;99.90
46159;DHT22;74657;45.650;25.590;2024-03-06T05:55:31;4.40;99.90
46159;DHT22;74657;45.650;25.590;2024-03-06T05:58:13;4.60;99.90
46159;DHT22;74657;45.650;25.590;2024-03-06T06:00:41;4.60;99.90
46159;DHT22;74657;45.650;25.590;2024-03-06T06:03:05;4.70;99.90
46159;DHT22;74657;45.650;25.590;2024-03-06T06:05:28;4.80;99.90
46159;DHT22;74657;45.650;25.590;2024-03-06T06:07:51;4.90;99.90
46159;DHT22;74657;45.650;25.590;2024-03-06T06:10:15;4.90;99.90
46159;DHT22;74657;45.650;25.590;2024-03-06T06:12:42;5.00;99.90
46159;DHT22;74657;45.650;25.590;2024-03-06T06:15:08;5.00;99.90
46159;DHT22;74657;45.650;25.590;2024-03-06T06:17:31;5.10;99.90
46159;DHT22;74657;45.650;25.590;2024-03-06T06:19:54;5.10;99.90
46159;DHT22;74657;45.650;25.590;2024-03-06T06:22:17;5.20;99.90
46159;DHT22;74657;45.650;25.590;2024-03-06T06:24:40;5.20;99.90
46159;DHT22;74657;45.650;25.590;2024-03-06T06:27:08;5.10;99.90
46159;DHT22;74657;45.650;25.590;2024-03-06T06:29:31;5.30;99.90
46159;DHT22;74657;45.650;25.590;2024-03-06T06:31:56;5.40;99.90
46159;DHT22;74657;45.650;25.590;2024-03-06T06:34:19;5.50;99.90
46159;DHT22;74657;45.650;25.590;2024-03-06T06:36:45;5.60;99.90
46159;DHT22;74657;45.650;25.590;2024-03-06T06:39:08;5.80;99.90
46159;DHT22;74657;45.650;25.590;2024-03-06T06:41:33;6.00;99.90
46159;DHT22;74657;45.650;25.590;2024-03-06T06:43:57;6.10;99.90
46159;DHT22;74657;45.650;25.590;2024-03-06T06:46:20;6.30;99.90
46159;DHT22;74657;45.650;25.590;2024-03-06T06:48:45;6.40;99.90
46159;DHT22;74657;45.650;25.590;2024-03-06T06:51:10;6.50;99.90
46159;DHT22;74657;45.650;25.590;2024-03-06T06:53:34;6.90;99.90
46159;DHT22;74657;45.650;25.590;2024-03-06T06:55:57;7.20;99.90
46159;DHT22;74657;45.650;25.590;2024-03-06T06:58:20;7.50;99.90
46159;DHT22;74657;45.650;25.590;2024-03-06T07:00:43;7.80;99.90
46159;DHT22;74657;45.650;25.590;2024-03-06T07:03:06;8.50;99.90
46159;DHT22;74657;45.650;25.590;2024-03-06T07:05:31;8.90;99.20
46159;DHT22;74657;45.650;25.590;2024-03-06T07:07:54;9.20;97.90
46159;DHT22;74657;45.650;25.590;2024-03-06T07:10:18;9.40;98.20
46159;DHT22;74657;45.650;25.590;2024-03-06T07:12:42;9.80;97.40
46159;DHT22;74657;45.650;25.590;2024-03-06T07:15:06;9.90;96.60
46159;DHT22;74657;45.650;25.590;2024-03-06T07:17:29;10.00;95.60
46159;DHT22;74657;45.650;25.590;2024-03-06T07:19:52;10.00;95.60
46159;DHT22;74657;45.650;25.590;2024-03-06T07:22:17;9.90;95.90
46159;DHT22;74657;45.650;25.590;2024-03-06T07:24:40;10.00;95.10
46159;DHT22;74657;45.650;25.590;2024-03-06T07:27:04;10.20;95.30
46159;DHT22;74657;45.650;25.590;2024-03-06T07:29:30;10.10;95.10
46159;DHT22;74657;45.650;25.590;2024-03-06T07:31:53;10.00;94.60
46159;DHT22;74657;45.650;25.590;2024-03-06T07:34:16;9.80;95.00
46159;DHT22;74657;45.650;25.590;2024-03-06T07:36:42;9.50;95.70
46159;DHT22;74657;45.650;25.590;2024-03-06T07:39:07;9.30;96.10
46159;DHT22;74657;45.650;25.590;2024-03-06T07:41:31;9.20;96.10
46159;DHT22;74657;45.650;25.590;2024-03-06T07:43:54;9.10;96.50
46159;DHT22;74657;45.650;25.590;2024-03-06T07:46:18;8.90;96.20
46159;DHT22;74657;45.650;25.590;2024-03-06T07:48:42;8.70;96.30
46159;DHT22;74657;45.650;25.590;2024-03-06T07:51:07;8.60;96.80
46159;DHT22;74657;45.650;25.590;2024-03-06T07:53:30;8.50;97.00
46159;DHT22;74657;45.650;25.590;2024-03-06T07:55:55;8.60;97.00
46159;DHT22;74657;45.650;25.590;2024-03-06T07:58:18;9.10;96.40
46159;DHT22;74657;45.650;25.590;2024-03-06T08:00:42;9.10;96.40
46159;DHT22;74657;45.650;25.590;2024-03-06T08:03:05;9.10;96.00
46159;DHT22;74657;45.650;25.590;2024-03-06T08:05:29;9.10;96.60
46159;DHT22;74657;45.650;25.590;2024-03-06T08:07:53;9.10;96.10
46159;DHT22;74657;45.650;25.590;2024-03-06T08:10:16;9.30;96.30
46159;DHT22;74657;45.650;25.590;2024-03-06T08:12:43;9.60;95.90
46159;DHT22;74657;45.650;25.590;2024-03-06T08:15:08;9.50;95.80
46159;DHT22;74657;45.650;25.590;2024-03-06T08:17:33;9.50;95.20
46159;DHT22;74657;45.650;25.590;2024-03-06T08:19:56;9.50;95.60
46159;DHT22;74657;45.650;25.590;2024-03-06T08:22:19;9.40;95.90
46159;DHT22;74657;45.650;25.590;2024-03-06T08:24:42;9.70;95.80
46159;DHT22;74657;45.650;25.590;2024-03-06T08:27:05;10.00;95.40
46159;DHT22;74657;45.650;25.590;2024-03-06T08:29:30;10.20;94.80
46159;DHT22;74657;45.650;25.590;2024-03-06T08:31:53;10.40;94.40
46159;DHT22;74657;45.650;25.590;2024-03-06T08:34:19;10.40;94.40
46159;DHT22;74657;45.650;25.590;2024-03-06T08:36:44;10.50;94.70
46159;DHT22;74657;45.650;25.590;2024-03-06T08:39:07;10.90;94.20
46159;DHT22;74657;45.650;25.590;2024-03-06T08:41:33;11.10;93.50
46159;DHT22;74657;45.650;25.590;2024-03-06T08:43:57;12.00;92.40
46159;DHT22;74657;45.650;25.590;2024-03-06T08:46:21;12.80;91.20
46159;DHT22;74657;45.650;25.590;2024-03-06T08:48:45;13.20;90.60
46159;DHT22;74657;45.650;25.590;2024-03-06T08:51:08;13.80;90.10
46159;DHT22;74657;45.650;25.590;2024-03-06T08:53:32;15.50;85.30
46159;DHT22;74657;45.650;25.590;2024-03-06T08:55:56;17.00;80.60
46159;DHT22;74657;45.650;25.590;2024-03-06T08:58:19;18.10;76.60
46159;DHT22;74657;45.650;25.590;2024-03-06T09:00:42;19.00;72.50
46159;DHT22;74657;45.650;25.590;2024-03-06T09:03:07;18.90;72.10
46159;DHT22;74657;45.650;25.590;2024-03-06T09:05:30;18.90;71.40
46159;DHT22;74657;45.650;25.590;2024-03-06T09:07:53;19.60;70.00
46159;DHT22;74657;45.650;25.590;2024-03-06T09:10:22;20.90;66.80
46159;DHT22;74657;45.650;25.590;2024-03-06T09:12:45;21.60;64.80
46159;DHT22;74657;45.650;25.590;2024-03-06T09:15:09;23.10;62.00
46159;DHT22;74657;45.650;25.590;2024-03-06T09:17:33;26.50;57.10
46159;DHT22;74657;45.650;25.590;2024-03-06T09:19:58;29.00;51.60
46159;DHT22;74657;45.650;25.590;2024-03-06T09:22:30;30.90;48.20
46159;DHT22;74657;45.650;25.590;2024-03-06T09:24:53;32.50;46.20
46159;DHT22;74657;45.650;25.590;2024-03-06T09:27:17;34.10;44.60
46159;DHT22;74657;45.650;25.590;2024-03-06T09:29:40;34.90;43.60
46159;DHT22;74657;45.650;25.590;2024-03-06T09:32:04;35.70;42.80
46159;DHT22;74657;45.650;25.590;2024-03-06T09:34:28;36.60;41.80
46159;DHT22;74657;45.650;25.590;2024-03-06T09:36:53;36.40;41.50
46159;DHT22;74657;45.650;25.590;2024-03-06T09:39:16;36.20;41.10
46159;DHT22;74657;45.650;25.590;2024-03-06T09:41:42;36.40;40.80
46159;DHT22;74657;45.650;25.590;2024-03-06T09:44:06;36.30;40.30
46159;DHT22;74657;45.650;25.590;2024-03-06T09:46:30;36.30;40.20
46159;DHT22;74657;45.650;25.590;2024-03-06T09:48:54;36.60;40.10
46159;DHT22;74657;45.650;25.590;2024-03-06T09:51:18;37.00;40.60
46159;DHT22;74657;45.650;25.590;2024-03-06T09:53:44;37.70;39.70
46159;DHT22;74657;45.650;25.590;2024-03-06T09:56:08;37.90;39.40
46159;DHT22;74657;45.650;25.590;2024-03-06T09:58:31;37.80;39.50
46159;DHT22;74657;45.650;25.590;2024-03-06T10:00:55;37.80;38.90
46159;DHT22;74657;45.650;25.590;2024-03-06T10:03:19;37.60;39.30
46159;DHT22;74657;45.650;25.590;2024-03-06T10:05:43;38.30;38.10
46159;DHT22;74657;45.650;25.590;2024-03-06T10:08:06;38.60;38.70
46159;DHT22;74657;45.650;25.590;2024-03-06T10:10:31;38.80;38.40
46159;DHT22;74657;45.650;25.590;2024-03-06T10:12:54;39.00;38.00
46159;DHT22;74657;45.650;25.590;2024-03-06T10:15:18;39.00;38.20
46159;DHT22;74657;45.650;25.590;2024-03-06T10:17:43;39.10;37.80
46159;DHT22;74657;45.650;25.590;2024-03-06T10:20:18;38.90;37.70
46159;DHT22;74657;45.650;25.590;2024-03-06T10:22:43;38.20;38.00
46159;DHT22;74657;45.650;25.590;2024-03-06T10:25:07;38.30;37.70
46159;DHT22;74657;45.650;25.590;2024-03-06T10:27:32;37.30;37.50
46159;DHT22;74657;45.650;25.590;2024-03-06T10:30:03;37.70;37.90
46159;DHT22;74657;45.650;25.590;2024-03-06T10:32:27;37.80;37.70
46159;DHT22;74657;45.650;25.590;2024-03-06T10:34:52;38.30;37.90
46159;DHT22;74657;45.650;25.590;2024-03-06T10:37:15;38.40;37.00
46159;DHT22;74657;45.650;25.590;2024-03-06T10:39:42;38.60;37.20
46159;DHT22;74657;45.650;25.590;2024-03-06T10:42:07;38.20;37.30
46159;DHT22;74657;45.650;25.590;2024-03-06T10:44:34;38.70;37.20
46159;DHT22;74657;45.650;25.590;2024-03-06T10:47:00;38.80;37.00
46159;DHT22;74657;45.650;25.590;2024-03-06T10:49:25;38.50;36.60
46159;DHT22;74657;45.650;25.590;2024-03-06T10:51:50;38.40;36.80
46159;DHT22;74657;45.650;25.590;2024-03-06T10:54:16;38.50;36.80
46159;DHT22;74657;45.650;25.590;2024-03-06T10:56:40;38.10;37.10
46159;DHT22;74657;45.650;25.590;2024-03-06T10:59:05;37.80;37.00
46159;DHT22;74657;45.650;25.590;2024-03-06T11:01:31;37.30;37.00
46159;DHT22;74657;45.650;25.590;2024-03-06T11:03:55;37.10;37.00
46159;DHT22;74657;45.650;25.590;2024-03-06T11:06:21;37.00;37.10
46159;DHT22;74657;45.650;25.590;2024-03-06T11:08:45;36.70;36.90
46159;DHT22;74657;45.650;25.590;2024-03-06T11:11:23;36.20;37.50
46159;DHT22;74657;45.650;25.590;2024-03-06T11:13:47;36.10;37.60
46159;DHT22;74657;45.650;25.590;2024-03-06T11:16:10;36.50;37.20
46159;DHT22;74657;45.650;25.590;2024-03-06T11:18:48;36.50;37.30
46159;DHT22;74657;45.650;25.590;2024-03-06T11:21:45;36.10;37.50
46159;DHT22;74657;45.650;25.590;2024-03-06T11:24:17;35.90;37.40
46159;DHT22;74657;45.650;25.590;2024-03-06T11:26:43;35.60;37.40
46159;DHT22;74657;45.650;25.590;2024-03-06T11:29:07;35.40;37.60
46159;DHT22;74657;45.650;25.590;2024-03-06T11:31:31;35.20;37.30
46159;DHT22;74657;45.650;25.590;2024-03-06T11:33:58;34.60;37.70
46159;DHT22;74657;45.650;25.590;2024-03-06T11:36:22;34.20;37.60
46159;DHT22;74657;45.650;25.590;2024-03-06T11:38:57;33.70;38.10
46159;DHT22;74657;45.650;25.590;2024-03-06T11:41:22;33.20;38.70
46159;DHT22;74657;45.650;25.590;2024-03-06T11:43:48;32.80;38.80
46159;DHT22;74657;45.650;25.590;2024-03-06T11:46:15;32.40;38.90
46159;DHT22;74657;45.650;25.590;2024-03-06T11:48:39;32.00;39.30
46159;DHT22;74657;45.650;25.590;2024-03-06T11:51:04;31.50;39.10
46159;DHT22;74657;45.650;25.590;2024-03-06T11:53:29;30.80;39.40
46159;DHT22;74657;45.650;25.590;2024-03-06T11:55:52;29.20;40.60
46159;DHT22;74657;45.650;25.590;2024-03-06T11:58:18;28.80;40.90
46159;DHT22;74657;45.650;25.590;2024-03-06T12:00:42;27.70;41.70
46159;DHT22;74657;45.650;25.590;2024-03-06T12:03:07;26.30;41.00
46159;DHT22;74657;45.650;25.590;2024-03-06T12:05:30;24.60;43.50
46159;DHT22;74657;45.650;25.590;2024-03-06T12:07:55;23.80;44.30
46159;DHT22;74657;45.650;25.590;2024-03-06T12:10:19;23.20;44.60
46159;DHT22;74657;45.650;25.590;2024-03-06T12:12:42;22.80;44.50
46159;DHT22;74657;45.650;25.590;2024-03-06T12:15:10;22.60;45.50
46159;DHT22;74657;45.650;25.590;2024-03-06T12:17:42;22.50;45.80
46159;DHT22;74657;45.650;25.590;2024-03-06T12:20:11;22.30;46.10
46159;DHT22;74657;45.650;25.590;2024-03-06T12:22:35;21.80;46.70
46159;DHT22;74657;45.650;25.590;2024-03-06T12:25:00;21.50;46.70
46159;DHT22;74657;45.650;25.590;2024-03-06T12:27:25;21.10;47.30
46159;DHT22;74657;45.650;25.590;2024-03-06T12:29:53;20.90;47.70
46159;DHT22;74657;45.650;25.590;2024-03-06T12:32:17;20.80;47.50
46159;DHT22;74657;45.650;25.590;2024-03-06T12:34:41;20.60;47.70
46159;DHT22;74657;45.650;25.590;2024-03-06T12:37:11;20.20;48.10
46159;DHT22;74657;45.650;25.590;2024-03-06T12:39:34;19.30;48.70
46159;DHT22;74657;45.650;25.590;2024-03-06T12:42:04;18.50;50.70
46159;DHT22;74657;45.650;25.590;2024-03-06T12:44:28;18.00;51.10
46159;DHT22;74657;45.650;25.590;2024-03-06T12:46:51;17.90;51.20
46159;DHT22;74657;45.650;25.590;2024-03-06T12:49:14;17.90;51.70
46159;DHT22;74657;45.650;25.590;2024-03-06T12:51:38;18.10;51.00
46159;DHT22;74657;45.650;25.590;2024-03-06T12:54:02;18.20;50.60
46159;DHT22;74657;45.650;25.590;2024-03-06T12:56:25;18.10;50.10
46159;DHT22;74657;45.650;25.590;2024-03-06T12:58:51;17.80;50.50
46159;DHT22;74657;45.650;25.590;2024-03-06T13:01:14;17.60;51.90
46159;DHT22;74657;45.650;25.590;2024-03-06T13:03:39;17.30;52.50
46159;DHT22;74657;45.650;25.590;2024-03-06T13:06:03;17.00;51.70
46159;DHT22;74657;45.650;25.590;2024-03-06T13:08:27;16.70;53.30
46159;DHT22;74657;45.650;25.590;2024-03-06T13:10:50;16.50;53.70
46159;DHT22;74657;45.650;25.590;2024-03-06T13:13:13;16.50;53.90
46159;DHT22;74657;45.650;25.590;2024-03-06T13:15:39;16.40;53.80
46159;DHT22;74657;45.650;25.590;2024-03-06T13:18:02;16.20;54.10
46159;DHT22;74657;45.650;25.590;2024-03-06T13:20:26;16.00;53.90
46159;DHT22;74657;45.650;25.590;2024-03-06T13:22:49;15.90;54.20
46159;DHT22;74657;45.650;25.590;2024-03-06T13:25:13;15.70;54.90
46159;DHT22;74657;45.650;25.590;2024-03-06T13:27:36;15.50;55.00
46159;DHT22;74657;45.650;25.590;2024-03-06T13:29:59;15.30;55.50
46159;DHT22;74657;45.650;25.590;2024-03-06T13:32:27;15.10;55.10
46159;DHT22;74657;45.650;25.590;2024-03-06T13:34:50;15.00;55.30
46159;DHT22;74657;45.650;25.590;2024-03-06T13:37:15;14.90;55.70
46159;DHT22;74657;45.650;25.590;2024-03-06T13:39:38;14.80;54.50
46159;DHT22;74657;45.650;25.590;2024-03-06T13:42:02;14.80;54.50
46159;DHT22;74657;45.650;25.590;2024-03-06T13:44:25;14.90;55.50
46159;DHT22;74657;45.650;25.590;2024-03-06T13:46:48;14.80;55.40
46159;DHT22;74657;45.650;25.590;2024-03-06T13:49:36;14.80;56.40
46159;DHT22;74657;45.650;25.590;2024-03-06T13:52:00;14.80;55.50
46159;DHT22;74657;45.650;25.590;2024-03-06T13:54:25;14.80;54.90
46159;DHT22;74657;45.650;25.590;2024-03-06T13:56:48;14.70;54.80
46159;DHT22;74657;45.650;25.590;2024-03-06T13:59:11;14.60;56.10
46159;DHT22;74657;45.650;25.590;2024-03-06T14:01:34;14.50;55.30
46159;DHT22;74657;45.650;25.590;2024-03-06T14:03:58;14.40;56.10
46159;DHT22;74657;45.650;25.590;2024-03-06T14:06:26;14.30;56.20
46159;DHT22;74657;45.650;25.590;2024-03-06T14:08:49;13.90;56.20
46159;DHT22;74657;45.650;25.590;2024-03-06T14:11:13;13.60;55.60
46159;DHT22;74657;45.650;25.590;2024-03-06T14:13:36;13.40;56.40
46159;DHT22;74657;45.650;25.590;2024-03-06T14:16:00;13.10;58.20
46159;DHT22;74657;45.650;25.590;2024-03-06T14:18:22;12.90;58.80
46159;DHT22;74657;45.650;25.590;2024-03-06T14:20:45;12.70;58.00
46159;DHT22;74657;45.650;25.590;2024-03-06T14:23:11;12.40;59.40
46159;DHT22;74657;45.650;25.590;2024-03-06T14:25:34;12.20;59.90
46159;DHT22;74657;45.650;25.590;2024-03-06T14:27:59;12.10;60.50
46159;DHT22;74657;45.650;25.590;2024-03-06T14:30:22;12.10;60.90
46159;DHT22;74657;45.650;25.590;2024-03-06T14:32:45;11.90;61.60
46159;DHT22;74657;45.650;25.590;2024-03-06T14:35:09;11.90;60.60
46159;DHT22;74657;45.650;25.590;2024-03-06T14:37:32;11.80;61.70
46159;DHT22;74657;45.650;25.590;2024-03-06T14:39:57;11.70;61.50
46159;DHT22;74657;45.650;25.590;2024-03-06T14:42:26;11.70;62.50
46159;DHT22;74657;45.650;25.590;2024-03-06T14:44:49;11.70;61.10
46159;DHT22;74657;45.650;25.590;2024-03-06T14:47:13;11.60;62.90
46159;DHT22;74657;45.650;25.590;2024-03-06T14:49:36;11.50;68.60
46159;DHT22;74657;45.650;25.590;2024-03-06T14:51:59;11.40;71.10
46159;DHT22;74657;45.650;25.590;2024-03-06T14:54:23;11.30;71.90
46159;DHT22;74657;45.650;25.590;2024-03-06T14:56:49;11.20;72.30
46159;DHT22;74657;45.650;25.590;2024-03-06T14:59:12;11.10;72.30
46159;DHT22;74657;45.650;25.590;2024-03-06T15:01:36;11.10;74.00
46159;DHT22;74657;45.650;25.590;2024-03-06T15:04:00;11.00;76.30
46159;DHT22;74657;45.650;25.590;2024-03-06T15:06:23;10.90;77.30
46159;DHT22;74657;45.650;25.590;2024-03-06T15:08:46;10.80;78.20
46159;DHT22;74657;45.650;25.590;2024-03-06T15:11:10;10.70;78.60
46159;DHT22;74657;45.650;25.590;2024-03-06T15:13:34;10.60;77.80